Terminal Aerodrome Forecast
Issued by NWS

Home | Current Version | Previous Version | Text Only | Print | Product List | Glossary On
Versions: 1 2 3 4 5 6 7 8 9 10 11 12 13 14 15 16 17 18 19 20 21
000
FTPA31 PHFO 040500
TAFKOA
TAF
PHKO 040520Z 0406/0506 07005KT P6SM SCT045 OVC200
     FM041500 07005KT P6SM FEW050 OVC120
     FM042000 35010KT P6SM FEW050 OVC100
     FM050300 01015KT P6SM VCSH BKN050 OVC120=

USA.gov is the U.S. government's official web portal to all federal, state and local government web resources and services.